createdAt,value
2019-01-29T00:00:44.511Z,74.97
2019-01-29T00:03:15.286Z,74.97
2019-01-29T00:05:45.745Z,74.82
2019-01-29T00:08:16.307Z,75.46
2019-01-29T00:10:46.813Z,75.11
2019-01-29T00:13:17.277Z,74.87
2019-01-29T00:15:47.745Z,75.80
2019-01-29T00:18:18.285Z,74.91
2019-01-29T00:20:48.749Z,77.47
2019-01-29T00:23:19.245Z,77.42
2019-01-29T00:25:49.808Z,76.54
2019-01-29T00:28:20.410Z,75.98
2019-01-29T00:30:50.874Z,75.21
2019-01-29T00:33:21.359Z,74.46
2019-01-29T00:35:51.808Z,73.59
2019-01-29T00:38:22.308Z,74.00
2019-01-29T00:40:52.789Z,73.34
2019-01-29T00:43:23.284Z,73.34
2019-01-29T00:45:53.842Z,73.58
2019-01-29T00:48:24.332Z,73.44
2019-01-29T00:50:54.854Z,72.40
2019-01-29T00:53:25.508Z,72.40
2019-01-29T00:55:55.976Z,71.14
2019-01-29T00:58:26.473Z,71.14
2019-01-29T01:00:57.030Z,71.99
2019-01-29T01:03:27.477Z,71.99
2019-01-29T01:05:57.960Z,73.37
2019-01-29T01:08:28.448Z,72.91
2019-01-29T01:10:58.893Z,72.39
2019-01-29T01:13:29.382Z,72.36
2019-01-29T01:15:59.842Z,71.65
2019-01-29T01:18:30.340Z,71.96
2019-01-29T01:21:00.892Z,72.71
2019-01-29T01:23:31.394Z,73.00
2019-01-29T01:26:01.858Z,73.00
2019-01-29T01:28:32.358Z,72.83
2019-01-29T01:31:02.950Z,72.83
2019-01-29T01:33:33.416Z,75.22
2019-01-29T01:36:03.932Z,74.11
2019-01-29T01:38:34.409Z,74.37
2019-01-29T01:41:04.990Z,74.60
2019-01-29T01:43:35.484Z,75.13
2019-01-29T01:46:05.945Z,75.15
2019-01-29T01:48:36.404Z,75.25
2019-01-29T01:51:06.866Z,74.93
2019-01-29T01:53:37.365Z,75.00
2019-01-29T01:56:07.824Z,75.07
2019-01-29T01:58:38.287Z,75.10
2019-01-29T02:01:08.891Z,75.37
2019-01-29T02:03:39.350Z,75.19
2019-01-29T02:06:09.849Z,75.65
2019-01-29T02:08:40.302Z,75.74
2019-01-29T02:11:10.893Z,75.84
2019-01-29T02:13:41.497Z,75.75
2019-01-29T02:16:11.964Z,76.41
2019-01-29T02:18:42.427Z,76.42
2019-01-29T02:21:12.938Z,75.78
2019-01-29T02:23:43.425Z,75.78
2019-01-29T02:26:13.890Z,76.07
2019-01-29T02:28:44.378Z,76.36
2019-01-29T02:31:14.853Z,76.02
2019-01-29T02:33:45.333Z,75.61
2019-01-29T02:36:15.842Z,75.88
2019-01-29T02:38:46.292Z,76.13
2019-01-29T02:41:16.946Z,76.84
2019-01-29T02:43:47.422Z,76.84
2019-01-29T02:46:18.093Z,76.81
2019-01-29T02:48:48.614Z,76.30
2019-01-29T02:51:19.121Z,76.30
2019-01-29T02:53:49.583Z,76.74
2019-01-29T02:56:20.043Z,77.32
2019-01-29T02:58:50.534Z,76.70
2019-01-29T03:01:21.085Z,76.57
2019-01-29T03:03:51.589Z,77.20
2019-01-29T03:06:22.146Z,77.22
2019-01-29T03:08:52.657Z,77.17
2019-01-29T03:11:23.152Z,77.37
2019-01-29T03:13:55.258Z,77.08
2019-01-29T03:16:25.753Z,76.86
2019-01-29T03:18:56.255Z,77.20
2019-01-29T03:21:26.730Z,76.88
2019-01-29T03:23:57.193Z,76.62
2019-01-29T03:26:27.703Z,76.54
2019-01-29T03:28:58.194Z,76.36
2019-01-29T03:31:28.659Z,76.82
2019-01-29T03:33:59.158Z,76.59
2019-01-29T03:36:29.621Z,76.19
2019-01-29T03:39:00.159Z,76.40
2019-01-29T03:41:30.668Z,76.64
2019-01-29T03:44:01.133Z,76.63
2019-01-29T03:46:31.633Z,76.46
2019-01-29T03:49:02.099Z,76.45
2019-01-29T03:51:32.601Z,77.19
2019-01-29T03:54:03.083Z,76.64
2019-01-29T03:56:33.579Z,76.20
2019-01-29T03:59:04.132Z,76.59
2019-01-29T04:01:34.668Z,76.52
2019-01-29T04:04:05.237Z,76.33
2019-01-29T04:06:35.729Z,76.90
2019-01-29T04:09:09.290Z,76.76
2019-01-29T04:11:39.885Z,77.05
2019-01-29T04:14:10.475Z,76.79
2019-01-29T04:16:40.989Z,77.03
2019-01-29T04:19:11.487Z,76.58
2019-01-29T04:21:42.063Z,77.08
2019-01-29T04:24:12.573Z,76.75
2019-01-29T04:26:43.100Z,77.18
2019-01-29T04:29:13.541Z,76.80
2019-01-29T04:31:44.029Z,77.59
2019-01-29T04:34:14.531Z,77.40
2019-01-29T04:36:44.998Z,77.67
2019-01-29T04:39:15.537Z,77.45
2019-01-29T04:41:46.098Z,77.21
2019-01-29T04:44:16.614Z,77.79
2019-01-29T04:46:47.080Z,78.24
2019-01-29T04:49:17.538Z,78.06
2019-01-29T04:51:48.053Z,77.38
2019-01-29T04:54:18.559Z,78.12
2019-01-29T04:56:49.063Z,78.16
2019-01-29T04:59:19.517Z,77.97
2019-01-29T05:01:50.113Z,79.28
2019-01-29T05:04:20.576Z,79.31
2019-01-29T05:06:51.048Z,79.01
2019-01-29T05:09:21.543Z,78.65
2019-01-29T05:11:52.014Z,78.84
2019-01-29T05:14:22.519Z,78.37
2019-01-29T05:16:52.976Z,78.59
2019-01-29T05:19:23.494Z,78.91
2019-01-29T05:21:53.956Z,78.61
2019-01-29T05:24:24.957Z,77.59
2019-01-29T05:26:55.407Z,77.69
2019-01-29T05:29:25.873Z,77.08
2019-01-29T05:31:56.381Z,76.67
2019-01-29T05:34:26.891Z,76.44
2019-01-29T05:36:57.347Z,75.62
2019-01-29T05:39:27.815Z,76.46
2019-01-29T05:41:58.320Z,76.33
2019-01-29T05:44:28.905Z,76.34
2019-01-29T05:46:59.409Z,75.93
2019-01-29T05:49:29.916Z,75.90
2019-01-29T05:52:00.430Z,75.95
2019-01-29T05:54:30.896Z,75.65
2019-01-29T05:57:01.405Z,76.21
2019-01-29T05:59:31.910Z,76.32
2019-01-29T06:02:02.372Z,76.18
2019-01-29T06:04:32.860Z,75.55
2019-01-29T06:07:03.412Z,75.43
2019-01-29T06:09:33.917Z,75.82
2019-01-29T06:12:04.585Z,75.70
2019-01-29T06:14:35.195Z,75.79
2019-01-29T06:17:05.915Z,75.61
2019-01-29T06:19:36.385Z,75.30
2019-01-29T06:22:06.950Z,75.67
2019-01-29T06:24:37.454Z,75.82
2019-01-29T06:27:08.016Z,75.95
2019-01-29T06:29:38.736Z,75.83
2019-01-29T06:32:09.191Z,75.37
2019-01-29T06:34:39.769Z,75.42
2019-01-29T06:37:10.288Z,75.39
2019-01-29T06:39:40.758Z,75.34
2019-01-29T06:42:11.395Z,75.32
2019-01-29T06:44:41.892Z,75.25
2019-01-29T06:47:12.357Z,75.79
2019-01-29T06:49:42.987Z,75.37
2019-01-29T06:52:13.476Z,75.38
2019-01-29T06:54:43.955Z,75.33
2019-01-29T06:57:14.518Z,75.09
2019-01-29T06:59:45.023Z,74.67
2019-01-29T07:02:15.551Z,75.32
2019-01-29T07:04:46.087Z,75.19
2019-01-29T07:07:16.606Z,74.47
2019-01-29T07:09:47.270Z,74.58
2019-01-29T07:12:17.840Z,74.08
2019-01-29T07:14:48.351Z,74.31
2019-01-29T07:17:28.882Z,74.00
2019-01-29T07:20:01.831Z,74.04
2019-01-29T07:22:32.383Z,73.92
2019-01-29T07:25:02.964Z,73.29
2019-01-29T07:27:33.642Z,74.14
2019-01-29T07:30:05.557Z,73.81
2019-01-29T07:32:36.032Z,74.33
2019-01-29T07:35:07.085Z,74.56
2019-01-29T07:37:37.668Z,73.68
2019-01-29T07:40:08.527Z,73.77
2019-01-29T07:42:39.052Z,73.31
2019-01-29T07:45:10.475Z,73.39
2019-01-29T07:47:41.057Z,73.07
2019-01-29T07:50:11.786Z,73.62
2019-01-29T07:52:42.346Z,73.23
2019-01-29T07:55:13.065Z,73.06
2019-01-29T07:57:43.550Z,73.49
2019-01-29T08:00:14.261Z,73.63
2019-01-29T08:02:44.869Z,73.28
2019-01-29T08:05:15.577Z,74.26
2019-01-29T08:07:46.136Z,73.36
2019-01-29T08:10:16.920Z,73.21
2019-01-29T08:12:47.497Z,72.94
2019-01-29T08:15:18.717Z,72.38
2019-01-29T08:17:49.416Z,73.11
2019-01-29T08:20:20.108Z,72.92
2019-01-29T08:22:50.650Z,71.90
2019-01-29T08:25:21.139Z,72.40
2019-01-29T08:27:51.785Z,72.67
2019-01-29T08:30:22.356Z,73.07
2019-01-29T08:32:52.877Z,74.22
2019-01-29T08:35:23.428Z,74.45
2019-01-29T08:37:53.920Z,74.32
2019-01-29T08:40:24.434Z,73.56
2019-01-29T08:42:54.924Z,74.40
2019-01-29T08:45:25.434Z,74.47
2019-01-29T08:47:55.937Z,73.87
2019-01-29T08:50:26.749Z,73.70
2019-01-29T08:52:57.255Z,73.32
2019-01-29T08:55:27.827Z,73.07
2019-01-29T08:57:58.331Z,72.38
2019-01-29T09:00:28.954Z,72.43
2019-01-29T09:02:59.451Z,71.96
2019-01-29T09:05:29.935Z,71.70
2019-01-29T09:08:00.544Z,71.19
2019-01-29T09:10:31.125Z,70.68
2019-01-29T09:13:01.625Z,72.14
2019-01-29T09:15:32.137Z,71.67
2019-01-29T09:18:02.641Z,70.70
2019-01-29T09:20:33.211Z,69.97
2019-01-29T09:23:03.735Z,70.46
2019-01-29T09:25:34.197Z,69.82
2019-01-29T09:28:04.833Z,69.08
2019-01-29T09:30:35.424Z,69.93
2019-01-29T09:33:06.422Z,69.02
2019-01-29T09:35:36.991Z,68.29
2019-01-29T09:38:07.517Z,67.16
2019-01-29T09:40:38.031Z,67.10
2019-01-29T09:43:08.653Z,66.87
2019-01-29T09:45:39.274Z,66.18
2019-01-29T09:48:09.858Z,65.91
2019-01-29T09:50:40.384Z,65.90
2019-01-29T09:53:11.053Z,65.46
2019-01-29T09:55:41.598Z,63.91
2019-01-29T09:58:12.088Z,63.83
2019-01-29T10:00:42.728Z,63.48
2019-01-29T10:03:13.275Z,64.10
2019-01-29T10:05:44.016Z,64.56
2019-01-29T10:08:14.492Z,63.78
2019-01-29T10:10:44.977Z,64.13
2019-01-29T10:13:15.589Z,63.62
2019-01-29T10:15:46.350Z,63.05
2019-01-29T10:18:16.949Z,63.73
2019-01-29T10:20:47.463Z,63.45
2019-01-29T10:23:17.937Z,63.73
2019-01-29T10:25:48.405Z,64.61
2019-01-29T10:28:18.963Z,66.14
2019-01-29T10:30:49.423Z,65.08
2019-01-29T10:33:19.890Z,64.71
2019-01-29T10:35:50.423Z,63.74
2019-01-29T10:38:21.013Z,63.56
2019-01-29T10:40:51.554Z,63.49
2019-01-29T10:43:22.135Z,63.93
2019-01-29T10:45:52.815Z,63.60
2019-01-29T10:48:23.363Z,64.20
2019-01-29T10:50:54.047Z,63.52
2019-01-29T10:53:24.570Z,63.76
2019-01-29T10:55:55.061Z,63.58
2019-01-29T10:58:25.752Z,63.10
2019-01-29T11:00:56.497Z,63.03
2019-01-29T11:03:28.805Z,62.88
2019-01-29T11:05:59.677Z,62.09
2019-01-29T11:08:30.621Z,61.90
2019-01-29T11:11:01.540Z,61.51
2019-01-29T11:13:32.054Z,61.07
2019-01-29T11:16:02.618Z,61.45
2019-01-29T11:18:33.629Z,61.80
2019-01-29T11:21:04.640Z,62.46
2019-01-29T11:23:35.506Z,62.31
2019-01-29T11:26:08.046Z,63.61
2019-01-29T11:28:39.067Z,63.20
2019-01-29T11:31:10.127Z,63.48
2019-01-29T11:33:41.200Z,64.28
2019-01-29T11:36:12.209Z,63.30
2019-01-29T11:38:43.175Z,63.03
2019-01-29T11:41:14.378Z,63.74
2019-01-29T11:43:45.443Z,63.05
2019-01-29T11:46:16.687Z,62.51
2019-01-29T11:48:47.548Z,61.92
2019-01-29T11:51:18.858Z,61.89
2019-01-29T11:53:51.257Z,61.35
2019-01-29T11:56:22.300Z,61.32
2019-01-29T11:58:54.884Z,61.02
2019-01-29T12:01:30.051Z,60.90
2019-01-29T12:04:07.502Z,61.05
2019-01-29T12:06:50.044Z,60.72
2019-01-29T12:09:33.434Z,61.52
2019-01-29T12:12:14.126Z,61.53
2019-01-29T12:17:58.460Z,62.65
2019-01-29T12:20:53.199Z,62.96
2019-01-29T12:23:33.660Z,62.86
2019-01-29T12:26:13.702Z,62.50
2019-01-29T12:29:13.515Z,63.36
2019-01-29T12:32:32.402Z,63.53
2019-01-29T12:35:40.758Z,63.18
2019-01-29T12:38:22.925Z,62.70
2019-01-29T12:41:23.902Z,62.64
2019-01-29T12:44:24.587Z,62.01
2019-01-29T12:47:30.179Z,62.08
2019-01-29T12:50:28.645Z,61.30
2019-01-29T12:56:43.430Z,60.88
2019-01-29T12:59:33.600Z,60.69
2019-01-29T13:02:11.567Z,61.12
2019-01-29T13:04:52.352Z,61.43
2019-01-29T13:07:52.324Z,61.87
2019-01-29T13:10:49.660Z,61.75
2019-01-29T13:13:30.631Z,62.49
2019-01-29T13:16:29.755Z,63.07
2019-01-29T13:19:30.154Z,63.17
2019-01-29T13:22:11.157Z,63.34
2019-01-29T13:25:06.626Z,63.57
2019-01-29T13:27:43.130Z,63.27
2019-01-29T13:33:40.443Z,64.30
2019-01-29T13:36:19.778Z,64.32
2019-01-29T13:39:11.493Z,63.85
2019-01-29T13:41:58.012Z,63.84
2019-01-29T13:44:45.451Z,64.16
2019-01-29T13:47:27.163Z,64.01
2019-01-29T13:50:17.655Z,63.47
2019-01-29T13:53:01.960Z,63.93
2019-01-29T13:55:54.403Z,64.60
2019-01-29T13:58:32.221Z,64.38
2019-01-29T14:01:16.189Z,63.85
2019-01-29T14:04:05.821Z,63.74
2019-01-29T14:06:41.232Z,63.50
2019-01-29T14:09:35.899Z,64.12
2019-01-29T14:12:10.558Z,64.27
2019-01-29T14:15:03.552Z,64.00
2019-01-29T14:17:37.411Z,64.24
2019-01-29T14:20:15.397Z,64.39
2019-01-29T14:23:12.037Z,64.89
2019-01-29T14:25:44.122Z,65.55
2019-01-29T14:28:28.803Z,67.04
2019-01-29T14:31:11.256Z,68.34
2019-01-29T14:34:06.611Z,69.68
2019-01-29T14:36:54.096Z,69.27
2019-01-29T14:40:29.790Z,69.28
2019-01-29T14:43:19.066Z,68.83
2019-01-29T14:46:11.537Z,67.91
2019-01-29T14:49:14.806Z,67.59
2019-01-29T14:52:14.263Z,67.53
2019-01-29T14:54:55.404Z,67.61
2019-01-29T14:57:36.826Z,67.67
2019-01-29T15:00:22.474Z,67.48
2019-01-29T15:02:53.324Z,67.10
2019-01-29T15:05:27.998Z,67.11
2019-01-29T15:07:58.950Z,66.87
2019-01-29T15:10:30.062Z,66.87
2019-01-29T15:13:01.040Z,67.48
2019-01-29T15:15:33.134Z,67.29
2019-01-29T15:18:12.713Z,67.35
2019-01-29T15:20:43.285Z,68.55
2019-01-29T15:23:14.574Z,69.27
2019-01-29T15:25:45.047Z,69.39
2019-01-29T15:28:15.573Z,68.83
2019-01-29T15:30:46.175Z,68.33
2019-01-29T15:33:16.684Z,68.28
2019-01-29T15:35:47.311Z,68.18
2019-01-29T15:38:17.880Z,68.22
2019-01-29T15:40:48.378Z,68.70
2019-01-29T15:43:18.840Z,69.01
2019-01-29T15:45:49.340Z,69.63
2019-01-29T15:48:19.914Z,69.21
2019-01-29T15:50:50.422Z,69.24
2019-01-29T15:53:21.062Z,69.15
2019-01-29T15:55:51.647Z,69.48
2019-01-29T15:58:22.381Z,69.11
2019-01-29T16:00:52.864Z,68.91
2019-01-29T16:03:23.478Z,69.07
2019-01-29T16:05:53.945Z,68.71
2019-01-29T16:08:24.458Z,68.51
2019-01-29T16:10:54.955Z,68.78
2019-01-29T16:13:25.407Z,68.93
2019-01-29T16:15:55.942Z,69.69
2019-01-29T16:18:26.545Z,69.93
2019-01-29T16:20:56.995Z,70.53
2019-01-29T16:23:27.492Z,70.89
2019-01-29T16:25:57.950Z,71.45
2019-01-29T16:28:28.455Z,71.56
2019-01-29T16:30:58.942Z,71.83
2019-01-29T16:33:29.563Z,72.08
2019-01-29T16:36:00.032Z,73.20
2019-01-29T16:38:30.531Z,73.65
2019-01-29T16:41:01.035Z,74.71
2019-01-29T16:43:31.498Z,74.47
2019-01-29T16:46:01.995Z,74.29
2019-01-29T16:48:32.511Z,74.23
2019-01-29T16:51:03.034Z,73.80
2019-01-29T16:53:33.491Z,74.79
2019-01-29T16:56:04.091Z,74.47
2019-01-29T16:58:34.546Z,74.77
2019-01-29T17:01:05.622Z,74.49
2019-01-29T17:03:36.078Z,74.47
2019-01-29T17:06:06.787Z,74.61
2019-01-29T17:08:37.288Z,74.40
2019-01-29T17:11:07.893Z,75.07
2019-01-29T17:13:38.489Z,74.92
2019-01-29T17:16:09.160Z,76.02
2019-01-29T17:18:39.643Z,75.91
2019-01-29T17:21:10.107Z,75.32
2019-01-29T17:23:40.598Z,75.38
2019-01-29T17:26:11.101Z,75.92
2019-01-29T17:28:41.616Z,75.89
2019-01-29T17:31:12.089Z,75.53
2019-01-29T17:33:42.612Z,75.50
2019-01-29T17:36:13.165Z,75.63
2019-01-29T17:38:44.769Z,76.07
2019-01-29T17:41:15.583Z,76.06
2019-01-29T17:43:46.091Z,75.83
2019-01-29T17:46:16.556Z,76.04
2019-01-29T17:48:47.048Z,76.12
2019-01-29T17:51:17.561Z,76.85
2019-01-29T17:53:48.042Z,76.40
2019-01-29T17:56:18.554Z,76.49
2019-01-29T17:58:49.020Z,76.52
2019-01-29T18:01:19.581Z,76.65
2019-01-29T18:03:50.042Z,76.57
2019-01-29T18:06:20.540Z,76.21
2019-01-29T18:08:51.038Z,76.32
2019-01-29T18:11:21.525Z,76.74
2019-01-29T18:13:52.022Z,76.69
2019-01-29T18:16:22.476Z,76.81
2019-01-29T18:18:52.989Z,76.87
2019-01-29T18:21:23.547Z,77.03
2019-01-29T18:23:55.376Z,76.82
2019-01-29T18:26:25.827Z,77.94
2019-01-29T18:28:56.278Z,78.18
2019-01-29T18:31:26.778Z,77.81
2019-01-29T18:33:57.394Z,77.44
2019-01-29T18:36:27.857Z,77.34
2019-01-29T18:38:58.380Z,76.89
2019-01-29T18:41:28.945Z,76.66
2019-01-29T18:43:59.405Z,76.38
2019-01-29T18:46:29.939Z,77.08
2019-01-29T18:49:00.394Z,76.82
2019-01-29T18:51:30.898Z,76.83
2019-01-29T18:54:01.400Z,76.78
2019-01-29T18:56:31.856Z,76.97
2019-01-29T18:59:02.317Z,76.51
2019-01-29T19:01:32.931Z,76.47
2019-01-29T19:04:03.395Z,76.44
2019-01-29T19:06:33.850Z,76.40
2019-01-29T19:09:05.876Z,76.19
2019-01-29T19:11:36.507Z,76.15
2019-01-29T19:14:07.104Z,76.31
2019-01-29T19:16:37.555Z,76.52
2019-01-29T19:19:08.041Z,76.47
2019-01-29T19:21:38.548Z,75.87
2019-01-29T19:24:09.033Z,76.50
2019-01-29T19:26:39.541Z,76.66
2019-01-29T19:29:10.011Z,76.42
2019-01-29T19:31:40.547Z,76.55
2019-01-29T19:34:11.225Z,76.88
2019-01-29T19:36:41.652Z,77.03
2019-01-29T19:39:12.315Z,77.01
2019-01-29T19:41:42.826Z,76.98
2019-01-29T19:44:13.293Z,76.93
2019-01-29T19:46:43.912Z,76.69
2019-01-29T19:49:14.552Z,76.55
2019-01-29T19:51:45.273Z,76.36
2019-01-29T19:54:15.777Z,76.76
2019-01-29T19:56:46.254Z,76.43
2019-01-29T19:59:16.748Z,76.61
2019-01-29T20:01:47.209Z,76.74
2019-01-29T20:04:17.772Z,77.11
2019-01-29T20:06:48.383Z,76.71
2019-01-29T20:09:18.835Z,77.35
2019-01-29T20:11:49.456Z,77.18
2019-01-29T20:14:19.922Z,77.19
2019-01-29T20:16:50.403Z,76.84
2019-01-29T20:19:20.907Z,76.38
2019-01-29T20:21:51.398Z,75.97
2019-01-29T20:24:22.108Z,75.93
2019-01-29T20:26:52.610Z,76.38
2019-01-29T20:29:23.172Z,76.41
2019-01-29T20:31:53.644Z,76.18
2019-01-29T20:34:24.244Z,76.06
2019-01-29T20:36:54.734Z,75.65
2019-01-29T20:39:34.491Z,75.24
2019-01-29T20:41:57.477Z,75.75
2019-01-29T20:44:27.932Z,75.65
2019-01-29T20:46:58.429Z,75.60
2019-01-29T20:49:28.893Z,75.68
2019-01-29T20:51:59.402Z,75.41
2019-01-29T20:54:29.908Z,75.08
2019-01-29T20:57:00.378Z,74.99
2019-01-29T20:59:30.890Z,74.91
2019-01-29T21:02:01.397Z,75.89
2019-01-29T21:04:31.853Z,76.17
2019-01-29T21:07:02.360Z,75.81
2019-01-29T21:09:33.333Z,75.79
2019-01-29T21:12:04.206Z,76.15
2019-01-29T21:14:34.741Z,75.72
2019-01-29T21:17:05.309Z,75.71
2019-01-29T21:19:35.774Z,75.62
2019-01-29T21:22:06.476Z,75.38
2019-01-29T21:24:36.940Z,75.98
2019-01-29T21:27:07.716Z,75.96
2019-01-29T21:29:38.207Z,76.81
2019-01-29T21:32:08.773Z,76.63
2019-01-29T21:34:39.279Z,76.35
2019-01-29T21:37:09.864Z,75.88
2019-01-29T21:39:40.411Z,76.11
2019-01-29T21:42:10.879Z,76.50
2019-01-29T21:44:41.390Z,76.22
2019-01-29T21:47:11.885Z,76.07
2019-01-29T21:49:42.386Z,76.41
2019-01-29T21:52:12.855Z,76.63
2019-01-29T21:54:43.348Z,76.67
2019-01-29T21:57:13.921Z,76.24
2019-01-29T21:59:44.401Z,75.81
2019-01-29T22:02:14.858Z,77.32
2019-01-29T22:04:45.351Z,77.53
2019-01-29T22:07:15.861Z,77.07
2019-01-29T22:09:46.354Z,77.31
2019-01-29T22:12:16.855Z,77.61
2019-01-29T22:14:47.354Z,76.97
2019-01-29T22:17:17.892Z,77.79
2019-01-29T22:19:48.419Z,77.97
2019-01-29T22:22:18.887Z,77.99
2019-01-29T22:24:49.350Z,78.02
2019-01-29T22:27:19.836Z,77.90
2019-01-29T22:29:54.381Z,77.51
2019-01-29T22:32:24.884Z,77.91
2019-01-29T22:34:55.345Z,78.51
2019-01-29T22:37:25.802Z,78.34
2019-01-29T22:39:56.306Z,78.03
2019-01-29T22:42:26.766Z,77.28
2019-01-29T22:44:57.274Z,78.19
2019-01-29T22:47:27.729Z,77.02
2019-01-29T22:49:58.275Z,76.81
2019-01-29T22:52:28.740Z,76.73
2019-01-29T22:54:59.217Z,77.14
2019-01-29T22:57:29.836Z,76.59
2019-01-29T23:00:00.316Z,77.47
2019-01-29T23:02:30.893Z,77.98
2019-01-29T23:05:01.385Z,77.79
2019-01-29T23:07:35.098Z,77.65
2019-01-29T23:10:10.407Z,77.62
2019-01-29T23:12:40.870Z,77.20
2019-01-29T23:15:13.710Z,78.25
2019-01-29T23:17:44.273Z,77.71
2019-01-29T23:20:15.516Z,78.01
2019-01-29T23:22:45.994Z,77.85
2019-01-29T23:25:16.452Z,78.10
2019-01-29T23:27:46.965Z,77.84
2019-01-29T23:30:18.803Z,77.41
2019-01-29T23:32:49.313Z,77.12
2019-01-29T23:35:19.872Z,77.36
2019-01-29T23:37:50.322Z,78.07
2019-01-29T23:40:20.913Z,77.33
2019-01-29T23:42:51.429Z,78.16
2019-01-29T23:45:21.988Z,78.06
2019-01-29T23:48:00.633Z,78.60
2019-01-29T23:50:32.126Z,78.71
2019-01-29T23:53:02.629Z,78.46
2019-01-29T23:55:33.148Z,78.33
2019-01-29T23:58:03.611Z,78.37
